Time;durP1;ratioP1;P1;durP2;ratioP2;P2;SDS_P1;SDS_P2;PMS_P1;PMS_P2;Temp;Humidity;BMP_temperature;BMP_pressure;BME280_temperature;BME280_humidity;BME280_pressure;Samples;Min_cycle;Max_cycle;Signal;HPM_P1;HPM_P2
2022/01/18 00:00:44;;;;;;;13.82;5.85;;;18.10;54.20;;;;;;5002757;28;20029;-55
2022/01/18 00:03:10;;;;;;;12.10;6.15;;;18.10;54.20;;;;;;5005354;28;20056;-57
2022/01/18 00:05:36;;;;;;;11.65;5.47;;;18.10;54.20;;;;;;5004197;28;20026;-52
2022/01/18 00:08:01;;;;;;;13.27;5.13;;;18.00;54.10;;;;;;4997362;28;20041;-52
2022/01/18 00:10:29;;;;;;;13.38;5.53;;;18.00;54.10;;;;;;5002159;28;20022;-56
2022/01/18 00:15:41;;;;;;;13.38;5.90;;;18.00;54.00;;;;;;4996626;28;20117;-51
2022/01/18 00:18:10;;;;;;;12.80;4.50;;;18.00;54.00;;;;;;5000910;28;20061;-54
2022/01/18 00:23:39;;;;;;;12.13;5.32;;;18.00;53.90;;;;;;4987157;28;20109;-52
2022/01/18 00:26:05;;;;;;;12.45;4.88;;;18.00;53.80;;;;;;4984086;28;20121;-53
2022/01/18 00:28:31;;;;;;;14.25;5.38;;;18.00;53.80;;;;;;4983882;28;20656;-52
2022/01/18 00:33:54;;;;;;;12.10;4.70;;;18.00;53.70;;;;;;4984780;28;20118;-56
2022/01/18 00:36:29;;;;;;;10.13;4.35;;;18.00;53.70;;;;;;5004285;28;20054;-56
2022/01/18 00:38:55;;;;;;;12.75;4.53;;;18.00;53.70;;;;;;4989384;28;20050;-52
2022/01/18 00:41:22;;;;;;;15.05;5.28;;;18.00;53.60;;;;;;4981369;28;20117;-53
2022/01/18 00:43:48;;;;;;;13.00;4.10;;;18.00;53.60;;;;;;4999174;28;20037;-54
2022/01/18 00:46:14;;;;;;;11.98;4.82;;;18.00;53.60;;;;;;5004658;28;20411;-56
2022/01/18 00:48:40;;;;;;;10.65;3.85;;;18.00;53.60;;;;;;5002580;28;20038;-55
2022/01/18 00:51:08;;;;;;;8.32;3.63;;;18.00;53.60;;;;;;4998951;28;20034;-54
2022/01/18 00:53:36;;;;;;;11.70;3.80;;;18.00;53.50;;;;;;4988059;28;20038;-55
2022/01/18 00:58:36;;;;;;;8.85;3.75;;;18.00;53.50;;;;;;5003922;28;20407;-55
2022/01/18 01:01:02;;;;;;;8.50;4.03;;;18.00;53.40;;;;;;5003483;28;20038;-56
2022/01/18 01:03:28;;;;;;;7.25;3.35;;;18.00;53.40;;;;;;5000830;28;20529;-53
2022/01/18 01:05:53;;;;;;;8.77;3.78;;;18.00;53.50;;;;;;4997362;28;20038;-56
2022/01/18 01:08:19;;;;;;;10.52;4.05;;;18.00;53.40;;;;;;4988627;28;20045;-53
2022/01/18 01:10:44;;;;;;;11.55;3.95;;;18.00;53.40;;;;;;4994144;28;20029;-56
2022/01/18 01:13:10;;;;;;;9.43;2.97;;;17.90;53.40;;;;;;5000131;28;20026;-56
2022/01/18 01:15:51;;;;;;;8.50;3.83;;;17.90;53.40;;;;;;4997389;28;20030;-54
2022/01/18 01:18:34;;;;;;;10.02;4.40;;;18.00;53.40;;;;;;4989088;28;20030;-56
2022/01/18 01:34:45;;;;;;;7.75;3.10;;;17.90;53.30;;;;;;4991311;28;20034;-52
2022/01/18 01:37:15;;;;;;;9.88;3.67;;;17.90;53.30;;;;;;4991846;28;20037;-50
2022/01/18 01:42:27;;;;;;;8.23;3.30;;;17.90;53.30;;;;;;5017459;28;20030;-56
2022/01/18 01:44:55;;;;;;;7.97;3.53;;;17.90;53.30;;;;;;4986956;28;20566;-51
2022/01/18 01:47:21;;;;;;;7.55;3.10;;;17.90;53.20;;;;;;5014564;28;20037;-51
2022/01/18 01:49:50;;;;;;;11.35;3.50;;;17.90;53.30;;;;;;4994721;28;20034;-54
2022/01/18 01:52:16;;;;;;;7.13;3.08;;;17.90;53.20;;;;;;5000378;28;20042;-55
2022/01/18 01:54:41;;;;;;;7.15;2.80;;;17.90;53.10;;;;;;5003812;28;20133;-56
2022/01/18 01:57:07;;;;;;;10.52;3.08;;;17.90;53.10;;;;;;5006401;28;20033;-57
2022/01/18 01:59:33;;;;;;;9.65;2.72;;;17.90;53.10;;;;;;5001868;28;20445;-51
2022/01/18 02:01:59;;;;;;;7.90;2.65;;;17.90;53.10;;;;;;5004167;28;20053;-51
2022/01/18 02:04:24;;;;;;;6.72;2.50;;;17.80;53.00;;;;;;5007031;28;20088;-54
2022/01/18 02:06:50;;;;;;;6.35;2.42;;;17.90;53.00;;;;;;4991268;23;20066;-56
2022/01/18 02:09:15;;;;;;;7.70;3.30;;;17.90;53.00;;;;;;4999602;23;20050;-64
2022/01/18 02:11:41;;;;;;;5.93;2.47;;;17.90;53.00;;;;;;5006794;28;20389;-64
2022/01/18 02:14:12;;;;;;;10.30;3.28;;;17.90;53.00;;;;;;5000045;28;20409;-64
2022/01/18 02:22:06;;;;;;;6.35;2.83;;;17.80;53.00;;;;;;4999036;28;20424;-64
2022/01/18 02:24:32;;;;;;;8.43;3.10;;;17.80;53.00;;;;;;4992321;28;20121;-64
2022/01/18 02:26:57;;;;;;;8.82;2.47;;;17.80;53.00;;;;;;5003299;28;20178;-64
2022/01/18 02:29:23;;;;;;;9.95;3.55;;;17.80;53.00;;;;;;5003194;28;20027;-64
2022/01/18 02:31:48;;;;;;;6.13;2.80;;;17.80;53.00;;;;;;4998341;28;20105;-64
2022/01/18 02:34:16;;;;;;;6.13;2.25;;;17.80;53.00;;;;;;4997528;28;20030;-64
2022/01/18 02:36:41;;;;;;;7.50;2.85;;;17.70;53.00;;;;;;4998355;28;20278;-64
2022/01/18 02:39:07;;;;;;;7.47;2.55;;;17.70;53.00;;;;;;4993065;28;20041;-64
2022/01/18 02:41:32;;;;;;;6.32;2.45;;;17.70;53.00;;;;;;4995541;28;20030;-64
2022/01/18 02:43:59;;;;;;;7.47;2.65;;;17.70;53.10;;;;;;4997778;28;20393;-64
2022/01/18 02:46:25;;;;;;;7.28;2.60;;;17.70;53.10;;;;;;4997455;28;20030;-64
2022/01/18 02:48:50;;;;;;;6.78;2.45;;;17.70;53.20;;;;;;4996760;28;20109;-64
2022/01/18 02:51:16;;;;;;;8.52;2.95;;;17.60;53.20;;;;;;4996783;28;20046;-64
2022/01/18 02:54:03;;;;;;;4.78;2.45;;;17.60;53.20;;;;;;4997092;28;20049;-64
2022/01/18 02:56:46;;;;;;;7.65;2.55;;;17.60;53.30;;;;;;4996441;28;20030;-64
2022/01/18 02:59:22;;;;;;;5.32;2.08;;;17.60;53.30;;;;;;5002803;28;20077;-64
2022/01/18 03:04:36;;;;;;;3.92;1.92;;;17.70;53.30;;;;;;4996150;28;20092;-64
2022/01/18 03:07:01;;;;;;;6.63;2.38;;;17.70;53.30;;;;;;5000538;28;20049;-64
2022/01/18 03:09:27;;;;;;;7.95;2.33;;;17.70;53.30;;;;;;4997724;28;20489;-64
2022/01/18 03:11:52;;;;;;;6.57;1.92;;;17.70;53.10;;;;;;4998377;28;20033;-65
2022/01/18 03:14:18;;;;;;;7.68;2.28;;;17.80;53.10;;;;;;5004139;28;20030;-64
2022/01/18 03:16:43;;;;;;;7.43;2.35;;;17.80;53.10;;;;;;5008424;28;20468;-64
2022/01/18 03:19:09;;;;;;;7.43;2.53;;;17.80;52.90;;;;;;5001170;28;20097;-65
2022/01/18 03:21:34;;;;;;;6.50;2.15;;;17.80;52.90;;;;;;4999190;28;20026;-64
2022/01/18 03:24:13;;;;;;;6.95;2.58;;;17.90;52.90;;;;;;4991401;28;20019;-64
2022/01/18 03:28:04;;;;;;;6.90;2.63;;;17.90;52.90;;;;;;5001260;28;20030;-65
2022/01/18 03:29:25;;;;;;;5.45;2.03;;;17.80;52.90;;;;;;4994584;28;20076;-64
2022/01/18 03:31:51;;;;;;;6.88;2.67;;;17.80;52.80;;;;;;4991091;28;20096;-64
2022/01/18 03:34:16;;;;;;;8.65;2.03;;;17.90;52.90;;;;;;4997551;28;20478;-63
2022/01/18 03:36:42;;;;;;;6.80;2.40;;;17.90;52.90;;;;;;4998152;28;20036;-64
2022/01/18 03:39:07;;;;;;;7.82;2.38;;;17.90;52.90;;;;;;4992937;28;20030;-64
2022/01/18 03:41:33;;;;;;;6.28;2.30;;;17.90;52.70;;;;;;5003843;28;20037;-64
2022/01/18 03:43:58;;;;;;;6.55;2.42;;;17.90;52.70;;;;;;5002066;28;20462;-64
2022/01/18 03:46:24;;;;;;;8.45;2.60;;;17.90;52.70;;;;;;4991181;28;20041;-64
2022/01/18 03:48:51;;;;;;;7.60;2.25;;;17.90;52.70;;;;;;4993026;28;20034;-64
2022/01/18 03:51:17;;;;;;;7.47;2.00;;;17.90;52.60;;;;;;5000866;28;20033;-64
2022/01/18 03:53:42;;;;;;;12.02;2.75;;;17.90;52.60;;;;;;5003933;28;20129;-64
2022/01/18 03:56:08;;;;;;;7.00;1.70;;;17.90;52.60;;;;;;4999022;28;20424;-65
2022/01/18 03:58:34;;;;;;;5.53;2.22;;;17.90;52.60;;;;;;4990454;28;20489;-64
2022/01/18 04:00:59;;;;;;;7.70;2.20;;;17.90;52.50;;;;;;4988611;28;20043;-64
2022/01/18 04:03:25;;;;;;;5.60;2.03;;;17.90;52.50;;;;;;4999738;28;20493;-65
2022/01/18 04:05:52;;;;;;;5.38;2.53;;;17.90;52.50;;;;;;5006510;28;20045;-64
2022/01/18 04:08:19;;;;;;;6.80;1.80;;;17.90;52.50;;;;;;4994065;28;20061;-64
2022/01/18 04:10:44;;;;;;;5.65;2.10;;;17.90;52.50;;;;;;4999555;28;20085;-65
2022/01/18 04:13:10;;;;;;;5.47;1.92;;;17.90;52.50;;;;;;5004397;28;20026;-64
2022/01/18 04:15:35;;;;;;;6.13;2.10;;;17.90;52.40;;;;;;4991908;28;20341;-63
2022/01/18 04:18:21;;;;;;;6.55;2.28;;;18.00;52.40;;;;;;5000468;28;20422;-64
2022/01/18 04:28:56;;;;;;;5.80;2.13;;;17.90;52.40;;;;;;4997121;28;20523;-64
2022/01/18 04:31:22;;;;;;;5.95;2.40;;;17.90;52.60;;;;;;5005634;28;20161;-64
2022/01/18 04:33:48;;;;;;;5.13;2.00;;;18.00;52.40;;;;;;4987636;28;20107;-64
2022/01/18 04:36:14;;;;;;;4.85;2.08;;;17.90;52.40;;;;;;4989691;28;20026;-64
2022/01/18 04:38:39;;;;;;;7.10;2.33;;;17.90;53.00;;;;;;4993573;28;20026;-65
2022/01/18 04:41:08;;;;;;;7.28;2.25;;;18.00;52.40;;;;;;5000665;28;20025;-64
2022/01/18 04:49:20;;;;;;;4.97;1.80;;;17.90;52.40;;;;;;4986252;28;20029;-64
2022/01/18 04:51:46;;;;;;;7.43;2.30;;;17.90;52.40;;;;;;4993614;28;20030;-64
2022/01/18 04:54:12;;;;;;;6.55;2.05;;;17.90;52.40;;;;;;5002218;28;20080;-64
2022/01/18 04:59:08;;;;;;;10.55;2.10;;;17.90;52.40;;;;;;4989039;28;20049;-64
2022/01/18 05:01:34;;;;;;;5.82;1.73;;;17.90;52.40;;;;;;4990800;28;20054;-64
2022/01/18 05:03:59;;;;;;;4.93;1.83;;;17.90;52.40;;;;;;4993515;28;20074;-64
2022/01/18 05:06:25;;;;;;;5.50;1.65;;;17.90;52.40;;;;;;4998332;28;20027;-64
2022/01/18 05:08:50;;;;;;;6.78;2.17;;;18.00;52.30;;;;;;5005262;28;20677;-64
2022/01/18 05:11:18;;;;;;;6.68;2.05;;;18.00;52.30;;;;;;4999664;28;20049;-64
2022/01/18 05:14:06;;;;;;;5.72;2.00;;;17.90;52.20;;;;;;4991491;28;20030;-64
2022/01/18 05:19:25;;;;;;;7.60;2.22;;;18.00;52.10;;;;;;4991857;28;20114;-64
2022/01/18 05:24:24;;;;;;;4.95;1.48;;;18.00;52.00;;;;;;4996023;28;20508;-64
2022/01/18 05:26:50;;;;;;;5.22;1.80;;;18.00;52.00;;;;;;4995315;28;20035;-64
2022/01/18 05:29:15;;;;;;;7.05;2.20;;;18.00;52.60;;;;;;4990238;28;20060;-63
2022/01/18 05:31:41;;;;;;;7.43;2.25;;;18.00;51.90;;;;;;4994655;28;20462;-64
2022/01/18 05:34:07;;;;;;;5.70;1.75;;;18.00;51.90;;;;;;4997262;28;20034;-64
2022/01/18 05:36:32;;;;;;;5.32;1.83;;;18.00;51.90;;;;;;4991331;28;20345;-64
2022/01/18 05:38:58;;;;;;;5.18;1.80;;;18.00;51.90;;;;;;4998606;28;20034;-63
2022/01/18 05:41:23;;;;;;;7.97;2.03;;;18.00;51.80;;;;;;4995502;28;20058;-64
2022/01/18 05:43:49;;;;;;;6.90;1.90;;;18.00;51.70;;;;;;5001543;28;20034;-64
2022/01/18 05:46:14;;;;;;;5.90;1.90;;;18.00;51.70;;;;;;5004225;28;20097;-65
2022/01/18 05:48:40;;;;;;;5.85;1.77;;;18.00;51.60;;;;;;4991988;28;20033;-65
2022/01/18 05:51:05;;;;;;;5.05;1.83;;;18.00;51.60;;;;;;4989691;28;20390;-66
2022/01/18 05:53:31;;;;;;;5.30;1.52;;;18.00;52.30;;;;;;5001052;28;20037;-64
2022/01/18 05:55:57;;;;;;;10.35;2.05;;;18.00;51.70;;;;;;4992793;28;20129;-63
2022/01/18 05:58:23;;;;;;;5.93;1.95;;;18.00;51.80;;;;;;4990610;28;20106;-63
2022/01/18 06:00:52;;;;;;;4.32;2.05;;;18.00;51.90;;;;;;4995239;28;20038;-62
2022/01/18 06:03:26;;;;;;;9.75;1.73;;;18.00;51.90;;;;;;5001540;28;20018;-62
2022/01/18 06:08:37;;;;;;;6.55;1.90;;;18.00;52.00;;;;;;4990030;28;20085;-63
2022/01/18 06:11:03;;;;;;;7.53;2.45;;;18.00;52.00;;;;;;5002890;28;20440;-64
2022/01/18 06:13:29;;;;;;;10.02;1.70;;;18.00;51.90;;;;;;5002339;28;20026;-64
2022/01/18 06:15:54;;;;;;;13.25;2.50;;;18.00;52.00;;;;;;4996226;28;20030;-63
2022/01/18 06:18:20;;;;;;;7.53;2.20;;;18.00;51.90;;;;;;4998987;28;20065;-62
2022/01/18 06:20:45;;;;;;;5.20;1.92;;;18.00;51.90;;;;;;4999059;28;20041;-62
2022/01/18 06:23:11;;;;;;;9.98;3.60;;;18.00;51.80;;;;;;5000866;28;20031;-62
2022/01/18 06:25:37;;;;;;;11.07;2.80;;;18.00;51.90;;;;;;4996052;28;20018;-62
2022/01/18 06:28:02;;;;;;;8.35;3.40;;;18.00;51.80;;;;;;5002675;28;20061;-62
2022/01/18 06:30:28;;;;;;;7.07;2.83;;;18.00;51.70;;;;;;4994596;28;20712;-63
2022/01/18 06:32:53;;;;;;;13.25;3.50;;;17.90;51.60;;;;;;5002359;28;20092;-61
2022/01/18 06:35:19;;;;;;;11.75;3.60;;;17.90;51.50;;;;;;4988404;28;20061;-63
2022/01/18 06:37:44;;;;;;;11.10;3.10;;;18.00;51.50;;;;;;5003738;28;20550;-62
2022/01/18 06:40:11;;;;;;;12.63;3.70;;;17.90;51.40;;;;;;4991469;28;20092;-63
2022/01/18 06:42:36;;;;;;;9.60;3.60;;;17.90;51.40;;;;;;5004007;28;20030;-63
2022/01/18 06:45:03;;;;;;;12.23;4.03;;;17.90;51.40;;;;;;4997726;28;20475;-62
2022/01/18 06:47:28;;;;;;;11.27;3.40;;;17.90;51.30;;;;;;5001167;28;20042;-63
2022/01/18 06:49:53;;;;;;;10.68;3.17;;;17.90;51.20;;;;;;5000690;28;20041;-63
2022/01/18 06:52:19;;;;;;;9.50;3.50;;;17.90;51.20;;;;;;4993628;28;20029;-63
2022/01/18 06:54:45;;;;;;;9.82;3.38;;;17.90;51.10;;;;;;5004066;28;20117;-62
2022/01/18 06:57:10;;;;;;;8.88;3.53;;;17.80;51.10;;;;;;4998361;28;20038;-61
2022/01/18 06:59:36;;;;;;;9.82;3.65;;;17.80;51.10;;;;;;5001024;28;20631;-62
2022/01/18 07:02:02;;;;;;;8.00;3.17;;;17.80;51.10;;;;;;4995157;28;20057;-62
2022/01/18 07:04:27;;;;;;;8.15;3.17;;;17.80;51.20;;;;;;4999068;28;20034;-61
2022/01/18 07:06:53;;;;;;;10.90;3.20;;;17.80;51.20;;;;;;4995975;28;20381;-62
2022/01/18 07:09:23;;;;;;;12.25;3.70;;;17.80;51.20;;;;;;4998284;28;20069;-62
2022/01/18 07:11:52;;;;;;;13.48;5.22;;;17.70;51.30;;;;;;4988115;28;20453;-63
2022/01/18 07:14:18;;;;;;;13.52;4.47;;;17.70;51.30;;;;;;4987038;28;20065;-63
2022/01/18 07:16:44;;;;;;;11.10;4.93;;;17.70;51.50;;;;;;4997198;28;20058;-63
2022/01/18 07:19:09;;;;;;;50.50;20.05;;;17.70;51.60;;;;;;4998449;28;20084;-62
2022/01/18 07:21:35;;;;;;;47.33;23.20;;;17.70;52.50;;;;;;4988208;28;20517;-63
2022/01/18 07:24:04;;;;;;;49.85;24.15;;;17.70;52.80;;;;;;4995871;28;20038;-63
2022/01/18 07:26:30;;;;;;;50.60;24.75;;;17.70;53.00;;;;;;4988732;28;20026;-63
2022/01/18 07:28:56;;;;;;;46.40;22.92;;;17.70;53.20;;;;;;4995266;28;20048;-64
2022/01/18 07:31:22;;;;;;;50.50;23.65;;;17.60;53.30;;;;;;5001909;28;20564;-63
2022/01/18 07:33:47;;;;;;;44.60;22.63;;;17.60;53.40;;;;;;5008034;28;20044;-64
2022/01/18 07:36:12;;;;;;;50.17;21.42;;;17.60;53.40;;;;;;4992985;28;20077;-64
2022/01/18 07:38:38;;;;;;;40.03;19.92;;;17.60;53.40;;;;;;4996641;28;20494;-63
2022/01/18 07:41:03;;;;;;;44.80;20.23;;;17.60;53.40;;;;;;4999366;28;20025;-63
2022/01/18 07:43:29;;;;;;;36.22;18.20;;;17.60;53.50;;;;;;4995008;28;20029;-63
2022/01/18 07:45:55;;;;;;;38.45;17.20;;;17.60;53.50;;;;;;4995298;28;20497;-63
2022/01/18 07:48:23;;;;;;;32.28;17.55;;;17.60;53.40;;;;;;4986968;28;20033;-64
2022/01/18 07:50:48;;;;;;;34.70;17.38;;;17.60;53.30;;;;;;4998041;28;20191;-63
2022/01/18 07:53:14;;;;;;;35.20;16.15;;;17.60;53.20;;;;;;4987855;28;20113;-63
2022/01/18 07:55:39;;;;;;;33.58;15.60;;;17.60;53.30;;;;;;5000475;28;20041;-63
2022/01/18 07:58:05;;;;;;;29.73;14.57;;;17.60;53.20;;;;;;4994193;28;20029;-63
2022/01/18 08:00:30;;;;;;;31.48;14.07;;;17.60;53.20;;;;;;5001695;28;20514;-63
2022/01/18 08:02:56;;;;;;;31.80;13.45;;;17.60;53.20;;;;;;5003819;28;20045;-62
2022/01/18 08:05:21;;;;;;;29.42;13.77;;;17.60;53.20;;;;;;4991788;28;20033;-63
2022/01/18 08:07:47;;;;;;;33.63;14.00;;;17.60;53.10;;;;;;5002121;28;20505;-63
2022/01/18 08:10:13;;;;;;;27.17;12.95;;;17.70;53.10;;;;;;4993143;28;20407;-63
2022/01/18 08:12:39;;;;;;;29.52;13.05;;;17.70;52.90;;;;;;5005141;28;20042;-63
2022/01/18 08:15:13;;;;;;;26.60;12.35;;;17.70;52.80;;;;;;5000077;28;20726;-63
2022/01/18 08:17:44;;;;;;;22.23;11.10;;;17.70;52.80;;;;;;4994037;28;20046;-60
2022/01/18 08:20:13;;;;;;;24.42;12.75;;;17.70;52.80;;;;;;4994272;28;20274;-63
2022/01/18 08:22:39;;;;;;;18.98;10.90;;;17.70;52.80;;;;;;4988515;28;20109;-64
2022/01/18 08:25:05;;;;;;;26.45;10.95;;;17.70;52.80;;;;;;4998266;28;20038;-63
2022/01/18 08:27:31;;;;;;;19.85;9.65;;;17.70;52.80;;;;;;4990730;28;20041;-63
2022/01/18 08:29:56;;;;;;;21.85;10.35;;;17.80;52.80;;;;;;4994539;28;20038;-63
2022/01/18 08:32:23;;;;;;;20.05;10.20;;;17.80;52.70;;;;;;5003554;28;20561;-64
2022/01/18 08:34:48;;;;;;;18.67;10.23;;;17.80;52.80;;;;;;4986158;28;20034;-63
2022/01/18 08:37:14;;;;;;;19.35;9.60;;;17.80;52.70;;;;;;4990906;28;20065;-63
2022/01/18 08:39:39;;;;;;;16.83;9.30;;;17.80;52.60;;;;;;4999770;28;20050;-63
2022/01/18 08:42:05;;;;;;;18.92;8.85;;;17.80;52.60;;;;;;4995105;28;20026;-63
2022/01/18 08:44:31;;;;;;;14.77;8.23;;;17.80;52.50;;;;;;4990995;28;20049;-62
2022/01/18 08:46:56;;;;;;;14.82;8.73;;;17.80;52.50;;;;;;4995301;28;20408;-62
2022/01/18 08:49:22;;;;;;;17.25;8.35;;;17.90;52.50;;;;;;4996960;28;20053;-62
2022/01/18 08:51:47;;;;;;;14.30;8.15;;;17.80;52.50;;;;;;5004089;28;20095;-62
2022/01/18 08:54:13;;;;;;;15.93;8.02;;;17.90;52.50;;;;;;4997270;28;20047;-63
2022/01/18 08:56:38;;;;;;;16.48;7.80;;;17.90;52.50;;;;;;4993034;28;20539;-62
2022/01/18 08:59:03;;;;;;;14.23;7.53;;;17.90;52.60;;;;;;4999231;28;20033;-61
2022/01/18 09:01:29;;;;;;;14.43;6.78;;;17.90;52.60;;;;;;4991323;28;20022;-62
2022/01/18 09:03:54;;;;;;;13.30;7.20;;;17.90;53.30;;;;;;4992972;28;20515;-63
2022/01/18 09:06:22;;;;;;;14.93;6.75;;;17.80;52.80;;;;;;5001963;28;20026;-62
2022/01/18 09:08:55;;;;;;;15.80;6.68;;;17.80;52.90;;;;;;4997213;28;20030;-62
2022/01/18 09:11:23;;;;;;;12.63;6.13;;;17.80;53.00;;;;;;4996685;28;20023;-62
2022/01/18 09:13:49;;;;;;;11.05;5.75;;;17.80;53.00;;;;;;4988653;28;20050;-62
2022/01/18 09:16:14;;;;;;;11.93;5.90;;;17.80;53.00;;;;;;4999153;28;20046;-62
2022/01/18 09:18:40;;;;;;;12.88;6.53;;;17.90;53.10;;;;;;4999266;28;20179;-61
2022/01/18 09:21:05;;;;;;;13.48;6.78;;;17.90;53.10;;;;;;5003097;28;20140;-62
2022/01/18 09:23:31;;;;;;;9.70;5.60;;;17.90;53.10;;;;;;4989014;28;20070;-62
2022/01/18 09:25:57;;;;;;;12.75;5.75;;;17.90;53.10;;;;;;4997467;28;20026;-62
2022/01/18 09:28:22;;;;;;;11.50;5.18;;;17.90;53.20;;;;;;5002072;28;20114;-62
2022/01/18 09:30:48;;;;;;;10.10;5.43;;;17.90;53.20;;;;;;4990999;28;20028;-61
2022/01/18 09:33:13;;;;;;;9.73;5.60;;;17.90;53.20;;;;;;4995503;28;20448;-61
2022/01/18 09:35:39;;;;;;;9.13;5.18;;;17.90;53.20;;;;;;4994212;28;20042;-60
2022/01/18 09:38:05;;;;;;;9.90;5.00;;;17.90;53.20;;;;;;4987770;28;20054;-61
2022/01/18 09:40:33;;;;;;;12.40;5.15;;;17.90;53.20;;;;;;4989611;28;20038;-62
2022/01/18 09:43:01;;;;;;;10.00;5.28;;;17.90;53.20;;;;;;4998475;28;20042;-62
2022/01/18 09:45:27;;;;;;;8.38;4.82;;;17.90;53.20;;;;;;5002123;28;20033;-63
2022/01/18 09:47:53;;;;;;;6.93;4.30;;;17.90;53.20;;;;;;5000247;28;20034;-62
2022/01/18 09:50:21;;;;;;;10.10;5.07;;;17.90;53.20;;;;;;5001191;28;20109;-60
2022/01/18 09:52:55;;;;;;;8.52;4.43;;;17.90;53.10;;;;;;5002352;28;20037;-63
2022/01/18 09:55:23;;;;;;;10.88;4.22;;;17.90;53.10;;;;;;4998484;28;20037;-62
2022/01/18 09:57:49;;;;;;;11.70;4.47;;;17.90;53.00;;;;;;4993874;28;20031;-62
2022/01/18 10:00:15;;;;;;;7.80;4.00;;;18.00;53.00;;;;;;4996333;28;20030;-62
2022/01/18 10:02:41;;;;;;;8.90;3.92;;;18.00;52.80;;;;;;4994623;28;20493;-56
2022/01/18 10:05:27;;;;;;;10.98;4.50;;;18.00;52.80;;;;;;4993000;28;21770;-62
2022/01/18 10:08:02;;;;;;;7.90;3.95;;;18.00;52.70;;;;;;5006922;28;20046;-62
2022/01/18 10:10:38;;;;;;;;;;;18.00;52.60;;;;;;4998482;28;20037;-62
2022/01/18 10:13:04;;;;;;;7.90;3.17;;;18.00;52.60;;;;;;4999443;28;19996;-63
2022/01/18 10:15:29;;;;;;;7.43;3.83;;;18.00;52.50;;;;;;4998510;28;20109;-62
2022/01/18 10:18:03;;;;;;;6.65;3.15;;;18.00;52.50;;;;;;4993684;28;20042;-62
2022/01/18 10:20:28;;;;;;;5.53;3.25;;;18.00;52.30;;;;;;5002804;28;20022;-62
2022/01/18 10:22:54;;;;;;;6.15;3.65;;;17.90;52.30;;;;;;5006969;28;20030;-65
2022/01/18 10:25:24;;;;;;;5.72;3.38;;;17.90;52.20;;;;;;4998857;28;20058;-62
2022/01/18 10:27:52;;;;;;;5.93;3.13;;;17.90;52.20;;;;;;4996848;28;20041;-62
2022/01/18 10:30:32;;;;;;;7.13;3.53;;;17.90;52.20;;;;;;5001990;28;20049;-62
2022/01/18 10:33:22;;;;;;;7.45;3.30;;;17.90;52.20;;;;;;4997531;28;20042;-63
2022/01/18 10:36:11;;;;;;;5.80;3.05;;;17.90;52.20;;;;;;4994257;28;20500;-62
2022/01/18 10:38:37;;;;;;;5.43;3.58;;;17.90;52.20;;;;;;4992131;28;20041;-62
2022/01/18 10:41:30;;;;;;;5.25;2.78;;;17.90;52.10;;;;;;5002267;28;20096;-62
2022/01/18 10:44:03;;;;;;;4.97;2.80;;;17.90;52.20;;;;;;5008265;28;20057;-62
2022/01/18 10:46:37;;;;;;;5.40;2.70;;;17.90;52.10;;;;;;4997574;28;20064;-62
2022/01/18 10:49:03;;;;;;;5.18;2.60;;;17.90;52.10;;;;;;5005443;28;20117;-62
2022/01/18 10:51:30;;;;;;;5.20;2.65;;;17.90;52.10;;;;;;4995799;28;20026;-62
2022/01/18 10:54:00;;;;;;;3.85;2.30;;;17.80;52.00;;;;;;4999268;28;20064;-62
2022/01/18 10:56:25;;;;;;;4.72;2.42;;;17.80;52.00;;;;;;4995280;28;20026;-62
2022/01/18 10:58:57;;;;;;;5.70;3.00;;;17.80;52.00;;;;;;4989248;28;20037;-63
2022/01/18 11:01:23;;;;;;;4.95;2.53;;;17.80;52.00;;;;;;4996387;28;20092;-62
2022/01/18 11:04:11;;;;;;;6.18;2.78;;;17.80;52.00;;;;;;5001888;28;20023;-62
2022/01/18 11:06:37;;;;;;;4.97;2.45;;;17.80;52.10;;;;;;4997912;28;20030;-63
2022/01/18 11:09:12;;;;;;;5.70;2.55;;;17.80;52.40;;;;;;4998651;28;20410;-63
2022/01/18 11:11:45;;;;;;;4.10;2.45;;;17.70;52.80;;;;;;4992928;28;20026;-64
2022/01/18 11:14:12;;;;;;;6.72;2.28;;;17.70;53.70;;;;;;4992071;28;20033;-64
2022/01/18 11:16:42;;;;;;;4.00;2.67;;;17.80;53.00;;;;;;4995880;28;20033;-64
2022/01/18 11:19:16;;;;;;;4.65;2.42;;;17.70;53.00;;;;;;4997261;28;20030;-64
2022/01/18 11:21:43;;;;;;;5.90;2.58;;;17.80;53.00;;;;;;4992786;28;20033;-64
2022/01/18 11:24:08;;;;;;;4.53;2.10;;;17.70;53.00;;;;;;4984203;28;20527;-64
2022/01/18 11:26:34;;;;;;;3.78;1.95;;;17.70;53.00;;;;;;4994124;28;20042;-63
2022/01/18 11:28:59;;;;;;;4.35;2.20;;;17.70;52.90;;;;;;4986437;28;20034;-63
2022/01/18 11:31:25;;;;;;;3.75;2.30;;;17.70;52.80;;;;;;4998760;28;20536;-63
2022/01/18 11:33:55;;;;;;;4.05;2.40;;;17.70;52.80;;;;;;4996405;28;20034;-63
2022/01/18 11:36:22;;;;;;;3.67;2.10;;;17.80;53.40;;;;;;4997886;28;20030;-63
2022/01/18 11:38:59;;;;;;;5.07;2.10;;;17.70;53.30;;;;;;4983205;28;20114;-63
2022/01/18 11:41:29;;;;;;;4.60;2.03;;;17.70;52.70;;;;;;4989969;28;20117;-64
2022/01/18 11:43:56;;;;;;;4.13;2.15;;;17.70;52.70;;;;;;4994359;28;20580;-63
2022/01/18 11:46:25;;;;;;;3.83;2.35;;;17.70;52.70;;;;;;4997711;28;20058;-64
2022/01/18 11:49:06;;;;;;;4.18;1.95;;;17.70;52.70;;;;;;4998580;28;20669;-63
2022/01/18 11:51:56;;;;;;;3.33;2.00;;;17.70;52.70;;;;;;4993809;28;20109;-61
2022/01/18 11:54:33;;;;;;;3.15;1.92;;;17.70;52.70;;;;;;4982646;28;20038;-63
2022/01/18 11:56:59;;;;;;;3.53;2.00;;;17.70;52.80;;;;;;5001173;28;20057;-62
2022/01/18 11:59:36;;;;;;;2.10;1.50;;;17.70;52.70;;;;;;5003071;28;20260;-62
2022/01/18 12:02:04;;;;;;;3.33;1.67;;;17.70;52.70;;;;;;4999171;28;20038;-64
2022/01/18 12:04:42;;;;;;;3.85;2.03;;;17.70;52.70;;;;;;4996412;28;20061;-63
2022/01/18 12:07:08;;;;;;;3.00;1.67;;;17.70;52.80;;;;;;5003518;28;20065;-63
2022/01/18 12:09:43;;;;;;;3.20;1.90;;;17.70;52.80;;;;;;4995515;28;20142;-63
2022/01/18 12:12:45;;;;;;;2.95;1.98;;;17.60;52.90;;;;;;4992236;28;20030;-63
2022/01/18 12:15:17;;;;;;;2.70;1.70;;;17.60;53.00;;;;;;5006509;28;20034;-63
2022/01/18 12:17:57;;;;;;;3.58;1.77;;;17.50;53.00;;;;;;4990318;28;20579;-63
2022/01/18 12:20:35;;;;;;;1.77;1.40;;;17.50;53.20;;;;;;5003942;28;20042;-64
2022/01/18 12:23:08;;;;;;;3.15;1.70;;;17.50;53.20;;;;;;4995550;28;20064;-64
2022/01/18 12:25:35;;;;;;;3.53;2.13;;;17.50;53.30;;;;;;4999649;28;20589;-63
2022/01/18 12:34:33;;;;;;;4.97;2.22;;;17.60;53.40;;;;;;4998635;28;20044;-63
2022/01/18 12:37:07;;;;;;;2.17;1.55;;;17.60;53.30;;;;;;5002000;28;20037;-63
2022/01/18 12:39:54;;;;;;;2.65;1.55;;;17.60;53.30;;;;;;4994797;28;20030;-58
2022/01/18 12:45:04;;;;;;;3.50;1.27;;;17.60;53.30;;;;;;4997209;28;20030;-63
2022/01/18 12:47:30;;;;;;;1.63;1.10;;;17.60;53.30;;;;;;4995931;28;20042;-63
2022/01/18 12:49:55;;;;;;;1.65;1.17;;;17.60;53.30;;;;;;4996973;28;20053;-65
2022/01/18 12:52:21;;;;;;;3.50;1.25;;;17.60;53.30;;;;;;4992154;28;20483;-60
2022/01/18 12:54:48;;;;;;;1.98;1.33;;;17.60;53.30;;;;;;5006327;28;20038;-63
2022/01/18 12:57:23;;;;;;;2.63;1.30;;;17.60;53.20;;;;;;4994446;28;20061;-63
2022/01/18 13:00:08;;;;;;;2.28;1.40;;;17.70;53.30;;;;;;4967967;28;20038;-64
2022/01/18 13:02:34;;;;;;;1.98;1.02;;;17.70;53.30;;;;;;4999539;28;20625;-64
2022/01/18 13:05:01;;;;;;;2.55;1.20;;;17.70;53.30;;;;;;4996406;28;20042;-63
2022/01/18 13:07:27;;;;;;;1.55;1.20;;;17.70;53.20;;;;;;4993404;28;20040;-63
2022/01/18 13:09:56;;;;;;;2.67;1.40;;;17.70;53.20;;;;;;4995232;28;20121;-63
2022/01/18 13:12:31;;;;;;;2.40;1.08;;;17.70;53.20;;;;;;5002537;28;20031;-63
2022/01/18 13:14:59;;;;;;;2.25;1.20;;;17.70;53.20;;;;;;5008815;28;20037;-63
2022/01/18 13:23:24;;;;;;;1.65;1.00;;;17.80;53.10;;;;;;5000595;28;20087;-63
2022/01/18 13:25:54;;;;;;;2.00;1.17;;;17.80;53.00;;;;;;5001579;28;20125;-63
2022/01/18 13:28:20;;;;;;;2.00;1.23;;;17.80;52.90;;;;;;4996606;28;20050;-64
2022/01/18 13:30:45;;;;;;;1.30;1.05;;;17.80;52.80;;;;;;5006092;28;20073;-63
2022/01/18 13:33:12;;;;;;;1.58;0.90;;;17.80;52.70;;;;;;4993902;28;20495;-63
2022/01/18 13:35:38;;;;;;;2.78;1.35;;;17.90;52.70;;;;;;4994526;28;20089;-64
2022/01/18 13:38:03;;;;;;;2.90;1.23;;;17.90;52.60;;;;;;5001391;28;20037;-64
2022/01/18 13:40:30;;;;;;;1.50;0.90;;;17.90;52.50;;;;;;5004131;28;20048;-63
2022/01/18 13:43:06;;;;;;;3.10;1.20;;;17.90;52.40;;;;;;5007691;28;20030;-64
2022/01/18 13:45:31;;;;;;;1.75;1.20;;;17.90;52.30;;;;;;5000697;28;20030;-63
2022/01/18 13:48:00;;;;;;;1.40;1.02;;;17.90;52.20;;;;;;4998547;28;20133;-63
2022/01/18 13:50:31;;;;;;;1.90;1.08;;;17.90;52.20;;;;;;5004830;28;20038;-64
2022/01/18 13:53:01;;;;;;;2.92;1.33;;;17.90;52.10;;;;;;5005331;28;20505;-63
2022/01/18 13:55:27;;;;;;;1.58;1.30;;;17.90;52.10;;;;;;4995706;28;20045;-63
2022/01/18 13:57:56;;;;;;;2.00;1.20;;;17.90;52.00;;;;;;4993594;28;20035;-63
2022/01/18 14:00:25;;;;;;;1.70;1.08;;;17.90;52.10;;;;;;4999690;28;20030;-63
2022/01/18 14:02:50;;;;;;;1.40;0.95;;;17.80;52.50;;;;;;4991577;28;20038;-64